createdAt,value
2018-02-14T00:00:33.395Z,12.30
2018-02-14T00:03:01.483Z,7.67
2018-02-14T00:05:29.593Z,12.30
2018-02-14T00:07:58.458Z,10.53
2018-02-14T00:10:26.554Z,8.50
2018-02-14T00:12:55.431Z,10.13
2018-02-14T00:15:23.520Z,9.57
2018-02-14T00:17:52.396Z,8.93
2018-02-14T00:20:21.266Z,8.00
2018-02-14T00:22:49.387Z,8.47
2018-02-14T00:25:17.468Z,10.27
2018-02-14T00:27:45.586Z,7.13
2018-02-14T00:30:13.669Z,9.17
2018-02-14T00:32:41.743Z,13.10
2018-02-14T00:35:09.863Z,9.07
2018-02-14T00:37:39.043Z,9.87
2018-02-14T00:40:07.129Z,11.63
2018-02-14T00:42:35.205Z,10.77
2018-02-14T00:45:03.315Z,11.70
2018-02-14T00:47:31.420Z,9.10
2018-02-14T00:49:59.528Z,7.67
2018-02-14T00:52:27.636Z,13.10
2018-02-14T00:54:55.773Z,11.70
2018-02-14T00:57:23.876Z,10.10
2018-02-14T00:59:51.974Z,12.53
2018-02-14T01:02:20.940Z,11.70
2018-02-14T01:11:33.960Z,7.33
2018-02-14T01:14:02.091Z,12.97
2018-02-14T01:16:30.179Z,8.87
2018-02-14T01:18:58.312Z,9.23
2018-02-14T01:21:26.433Z,9.60
2018-02-14T01:23:55.339Z,9.27
2018-02-14T01:26:23.461Z,8.50
2018-02-14T01:28:51.753Z,9.60
2018-02-14T01:31:19.848Z,9.93
2018-02-14T01:33:48.731Z,16.20
2018-02-14T01:36:17.693Z,15.13
2018-02-14T01:38:45.790Z,27.87
2018-02-14T01:41:13.913Z,11.40
2018-02-14T01:43:42.021Z,10.17
2018-02-14T01:46:10.126Z,8.93
2018-02-14T01:48:38.253Z,9.43
2018-02-14T01:51:06.365Z,11.40
2018-02-14T01:53:35.248Z,8.43
2018-02-14T01:56:04.096Z,13.87
2018-02-14T01:58:32.193Z,8.73
2018-02-14T02:01:00.318Z,9.03
2018-02-14T02:03:28.420Z,12.13
2018-02-14T02:05:56.534Z,13.20
2018-02-14T02:08:24.665Z,11.97
2018-02-14T02:10:52.746Z,16.97
2018-02-14T02:13:20.844Z,11.93
2018-02-14T02:15:49.705Z,11.03
2018-02-14T02:18:17.804Z,9.50
2018-02-14T02:20:45.895Z,10.83
2018-02-14T02:23:14.767Z,12.43
2018-02-14T02:25:43.647Z,10.03
2018-02-14T02:28:11.758Z,12.90
2018-02-14T02:30:40.630Z,8.37
2018-02-14T02:33:09.546Z,15.07
2018-02-14T02:35:37.649Z,12.80
2018-02-14T02:38:05.753Z,13.63
2018-02-14T02:40:33.928Z,19.07
2018-02-14T02:43:02.081Z,11.40
2018-02-14T02:45:30.176Z,8.17
2018-02-14T02:47:58.287Z,11.30
2018-02-14T02:50:26.379Z,12.60
2018-02-14T02:52:54.786Z,11.20
2018-02-14T02:55:22.895Z,10.53
2018-02-14T02:57:51.032Z,10.37
2018-02-14T03:00:19.129Z,12.20
2018-02-14T03:02:47.219Z,15.60
2018-02-14T03:05:15.323Z,11.00
2018-02-14T03:07:43.427Z,12.67
2018-02-14T03:10:11.521Z,17.27
2018-02-14T03:12:39.628Z,9.30
2018-02-14T03:15:07.754Z,14.70
2018-02-14T03:17:36.596Z,11.77
2018-02-14T03:20:04.721Z,15.33
2018-02-14T03:22:33.566Z,10.07
2018-02-14T03:25:01.692Z,9.80
2018-02-14T03:27:30.553Z,14.97
2018-02-14T03:29:58.640Z,11.40
2018-02-14T03:32:26.745Z,10.47
2018-02-14T03:34:54.880Z,14.33
2018-02-14T03:37:22.984Z,11.47
2018-02-14T03:39:51.081Z,12.23
2018-02-14T03:42:19.202Z,11.37
2018-02-14T03:44:47.298Z,14.90
2018-02-14T03:47:17.069Z,12.10
2018-02-14T03:49:45.170Z,14.67
2018-02-14T03:52:13.247Z,13.80
2018-02-14T03:54:41.355Z,10.17
2018-02-14T03:57:09.456Z,12.57
2018-02-14T03:59:37.571Z,10.80
2018-02-14T04:02:07.475Z,10.13
2018-02-14T04:04:36.349Z,13.33
2018-02-14T04:07:04.437Z,11.63
2018-02-14T04:09:33.287Z,13.30
2018-02-14T04:12:01.391Z,13.87
2018-02-14T04:14:29.491Z,13.50
2018-02-14T04:16:57.592Z,10.37
2018-02-14T04:19:25.704Z,12.60
2018-02-14T04:21:53.809Z,13.17
2018-02-14T04:24:21.920Z,11.43
2018-02-14T04:26:50.032Z,13.83
2018-02-14T04:29:18.908Z,12.03
2018-02-14T04:31:46.999Z,14.47
2018-02-14T04:34:15.857Z,11.40
2018-02-14T04:36:43.969Z,11.67
2018-02-14T04:39:12.083Z,16.97
2018-02-14T04:41:40.218Z,11.13
2018-02-14T04:44:08.327Z,13.40
2018-02-14T04:46:36.420Z,15.87
2018-02-14T04:49:04.531Z,13.53
2018-02-14T04:51:32.606Z,15.13
2018-02-14T04:54:00.688Z,14.70
2018-02-14T04:56:28.811Z,14.27
2018-02-14T04:58:56.945Z,14.50
2018-02-14T05:01:25.056Z,14.27
2018-02-14T05:03:53.150Z,12.10
2018-02-14T05:06:21.259Z,9.70
2018-02-14T05:08:49.417Z,21.10
2018-02-14T05:11:18.289Z,16.70
2018-02-14T05:13:47.163Z,12.50
2018-02-14T05:16:16.280Z,21.07
2018-02-14T05:18:45.153Z,16.50
2018-02-14T05:21:16.517Z,13.70
2018-02-14T05:23:45.396Z,13.53
2018-02-14T05:26:13.525Z,23.50
2018-02-14T05:28:42.355Z,13.07
2018-02-14T05:31:10.443Z,13.90
2018-02-14T05:33:39.301Z,18.70
2018-02-14T05:36:07.403Z,16.17
2018-02-14T05:38:36.284Z,14.20
2018-02-14T05:41:05.299Z,11.20
2018-02-14T05:43:33.390Z,18.37
2018-02-14T05:46:01.504Z,16.50
2018-02-14T05:48:29.598Z,18.33
2018-02-14T05:50:57.716Z,16.20
2018-02-14T05:53:25.816Z,15.77
2018-02-14T05:55:53.924Z,13.90
2018-02-14T05:58:22.041Z,16.23
2018-02-14T06:00:50.568Z,15.53
2018-02-14T06:03:18.663Z,12.50
2018-02-14T06:05:46.767Z,16.40
2018-02-14T06:08:14.884Z,14.37
2018-02-14T06:10:42.999Z,22.80
2018-02-14T06:13:11.113Z,22.30
2018-02-14T06:15:39.194Z,18.03
2018-02-14T06:18:08.316Z,17.50
2018-02-14T06:20:37.200Z,15.13
2018-02-14T06:23:06.060Z,23.93
2018-02-14T06:25:34.149Z,21.73
2018-02-14T06:28:02.270Z,16.67
2018-02-14T06:30:30.356Z,17.37
2018-02-14T06:32:58.445Z,22.57
2018-02-14T06:35:26.588Z,50.87
2018-02-14T06:37:54.683Z,24.17
2018-02-14T06:40:22.793Z,16.17
2018-02-14T06:42:51.942Z,23.87
2018-02-14T06:45:20.029Z,15.63
2018-02-14T06:47:48.123Z,22.70
2018-02-14T06:50:16.220Z,20.80
2018-02-14T06:52:44.354Z,19.60
2018-02-14T06:55:12.443Z,24.40
2018-02-14T06:57:40.577Z,21.30
2018-02-14T07:00:08.682Z,16.70
2018-02-14T07:02:37.711Z,29.70
2018-02-14T07:05:06.665Z,30.70
2018-02-14T07:07:34.921Z,24.70
2018-02-14T07:10:03.977Z,21.77
2018-02-14T07:12:32.075Z,19.90
2018-02-14T07:15:00.186Z,18.57
2018-02-14T07:17:28.307Z,19.57
2018-02-14T07:19:56.402Z,27.83
2018-02-14T07:22:24.514Z,22.57
2018-02-14T07:24:52.594Z,20.20
2018-02-14T07:27:21.459Z,23.53
2018-02-14T07:29:49.614Z,21.17
2018-02-14T07:32:17.708Z,21.20
2018-02-14T07:34:45.814Z,19.40
2018-02-14T07:37:14.682Z,28.10
2018-02-14T07:39:42.763Z,21.40
2018-02-14T07:42:10.877Z,22.97
2018-02-14T07:44:38.979Z,26.60
2018-02-14T07:47:08.500Z,25.37
2018-02-14T07:49:36.592Z,18.50
2018-02-14T07:52:05.440Z,19.97
2018-02-14T07:54:33.551Z,27.47
2018-02-14T07:57:02.399Z,21.60
2018-02-14T07:59:30.491Z,19.53
2018-02-14T08:01:58.995Z,19.90
2018-02-14T08:04:27.838Z,19.10
2018-02-14T08:06:55.928Z,23.73
2018-02-14T08:09:24.026Z,18.80
2018-02-14T08:11:52.887Z,19.23
2018-02-14T08:14:20.990Z,18.90
2018-02-14T08:16:49.106Z,30.33
2018-02-14T08:19:17.204Z,24.87
2018-02-14T08:21:45.322Z,19.33
2018-02-14T08:24:13.411Z,22.50
2018-02-14T08:26:41.540Z,25.43
2018-02-14T08:29:09.645Z,18.60
2018-02-14T08:31:38.495Z,20.03
2018-02-14T08:34:06.587Z,19.10
2018-02-14T08:36:34.688Z,20.97
2018-02-14T08:39:02.784Z,22.20
2018-02-14T08:41:30.884Z,22.63
2018-02-14T08:43:58.989Z,24.83
2018-02-14T08:46:27.075Z,19.80
2018-02-14T08:48:55.177Z,23.00
2018-02-14T08:51:23.281Z,19.60
2018-02-14T08:53:51.370Z,19.50
2018-02-14T08:56:20.223Z,25.83
2018-02-14T08:58:48.328Z,17.57
2018-02-14T09:01:16.452Z,25.23
2018-02-14T09:03:44.555Z,22.97
2018-02-14T09:06:12.632Z,20.53
2018-02-14T09:08:40.731Z,17.77
2018-02-14T09:11:08.819Z,21.87
2018-02-14T09:13:36.916Z,26.50
2018-02-14T09:16:04.994Z,17.83
2018-02-14T09:18:33.100Z,20.93
2018-02-14T09:21:01.192Z,21.37
2018-02-14T09:23:30.036Z,20.03
2018-02-14T09:25:58.149Z,25.23
2018-02-14T09:28:27.024Z,24.53
2018-02-14T09:30:55.130Z,24.40
2018-02-14T09:33:23.222Z,19.23
2018-02-14T09:35:51.322Z,23.30
2018-02-14T09:38:19.387Z,19.20
2018-02-14T09:40:47.501Z,19.47
2018-02-14T09:43:15.585Z,25.63
2018-02-14T09:45:43.667Z,19.47
2018-02-14T09:48:14.909Z,22.87
2018-02-14T09:50:43.004Z,23.00
2018-02-14T09:53:11.100Z,23.50
2018-02-14T09:55:39.200Z,17.17
2018-02-14T09:58:07.316Z,20.80
2018-02-14T10:00:35.391Z,25.43
2018-02-14T10:03:03.503Z,21.27
2018-02-14T10:05:31.593Z,27.00
2018-02-14T10:07:59.669Z,21.27
2018-02-14T10:10:28.531Z,22.90
2018-02-14T10:12:56.621Z,26.17
2018-02-14T10:15:24.730Z,22.00
2018-02-14T10:17:53.799Z,22.03
2018-02-14T10:20:22.664Z,22.73
2018-02-14T10:22:50.764Z,18.33
2018-02-14T10:25:19.628Z,19.50
2018-02-14T10:27:47.722Z,18.93
2018-02-14T10:30:16.599Z,25.70
2018-02-14T10:32:44.687Z,25.60
2018-02-14T10:35:13.544Z,22.07
2018-02-14T10:37:41.631Z,27.13
2018-02-14T10:40:09.735Z,17.40
2018-02-14T10:42:37.845Z,18.80
2018-02-14T10:45:05.934Z,20.97
2018-02-14T10:47:34.009Z,24.80
2018-02-14T10:50:02.129Z,19.83
2018-02-14T10:52:30.225Z,18.30
2018-02-14T10:54:58.363Z,18.37
2018-02-14T10:57:27.223Z,17.83
2018-02-14T10:59:55.333Z,20.50
2018-02-14T11:02:24.248Z,17.23
2018-02-14T11:04:58.572Z,18.33
2018-02-14T11:07:26.659Z,17.00
2018-02-14T11:09:54.764Z,19.07
2018-02-14T11:12:22.867Z,14.90
2018-02-14T11:14:50.985Z,16.53
2018-02-14T11:17:19.113Z,17.73
2018-02-14T11:19:47.200Z,15.20
2018-02-14T11:22:15.315Z,16.87
2018-02-14T11:24:43.433Z,14.10
2018-02-14T11:27:11.542Z,16.57
2018-02-14T11:29:40.552Z,16.10
2018-02-14T11:32:08.671Z,13.10
2018-02-14T11:34:36.793Z,13.67
2018-02-14T11:37:04.910Z,16.20
2018-02-14T11:39:33.074Z,21.60
2018-02-14T11:42:01.951Z,12.90
2018-02-14T11:44:30.055Z,14.33
2018-02-14T11:46:59.192Z,13.77
2018-02-14T11:49:27.373Z,15.30
2018-02-14T11:51:56.358Z,16.40
2018-02-14T11:54:25.332Z,14.30
2018-02-14T11:56:53.476Z,15.03
2018-02-14T11:59:23.599Z,16.80
2018-02-14T12:01:54.052Z,10.60
2018-02-14T12:04:22.252Z,13.80
2018-02-14T12:06:50.434Z,13.00
2018-02-14T12:09:18.621Z,14.83
2018-02-14T12:11:46.788Z,12.80
2018-02-14T12:14:14.905Z,11.23
2018-02-14T12:16:43.069Z,8.77
2018-02-14T12:19:11.215Z,9.93
2018-02-14T12:21:39.351Z,10.73
2018-02-14T12:24:08.520Z,12.33
2018-02-14T12:26:36.653Z,14.40
2018-02-14T12:29:04.759Z,16.67
2018-02-14T12:31:32.917Z,15.53
2018-02-14T12:34:01.074Z,9.90
2018-02-14T12:36:29.165Z,10.30
2018-02-14T12:38:57.289Z,10.50
2018-02-14T12:41:26.400Z,15.17
2018-02-14T12:43:54.563Z,16.23
2018-02-14T12:46:22.698Z,15.03
2018-02-14T12:48:50.838Z,9.27
2018-02-14T12:51:19.013Z,11.93
2018-02-14T12:53:47.170Z,10.50
2018-02-14T12:56:15.297Z,11.03
2018-02-14T12:58:43.436Z,12.90
2018-02-14T13:01:14.334Z,10.80
2018-02-14T13:03:43.572Z,9.27
2018-02-14T13:06:12.555Z,9.43
2018-02-14T13:08:40.667Z,11.23
2018-02-14T13:11:10.286Z,9.27
2018-02-14T13:13:38.434Z,10.97
2018-02-14T13:16:06.610Z,9.90
2018-02-14T13:18:36.612Z,8.60
2018-02-14T13:21:06.161Z,8.40
2018-02-14T13:23:34.277Z,11.87
2018-02-14T13:26:02.440Z,11.40
2018-02-14T13:28:33.594Z,11.73
2018-02-14T13:31:03.537Z,12.50
2018-02-14T13:33:33.333Z,8.93
2018-02-14T13:36:02.508Z,11.07
2018-02-14T13:38:34.671Z,9.40
2018-02-14T13:41:16.628Z,10.67
2018-02-14T13:43:47.646Z,11.13
2018-02-14T13:46:15.797Z,9.67
2018-02-14T13:48:43.975Z,8.60
2018-02-14T13:51:13.009Z,9.00
2018-02-14T13:53:42.323Z,8.43
2018-02-14T13:56:16.773Z,10.03
2018-02-14T13:58:44.956Z,11.90
2018-02-14T14:01:13.251Z,11.37
2018-02-14T14:03:41.428Z,10.70
2018-02-14T14:06:10.371Z,15.30
2018-02-14T14:08:38.564Z,12.77
2018-02-14T14:11:06.708Z,8.63
2018-02-14T14:13:34.857Z,12.53
2018-02-14T14:16:04.600Z,9.07
2018-02-14T14:18:32.730Z,9.00
2018-02-14T14:21:00.880Z,9.23
2018-02-14T14:23:28.998Z,10.70
2018-02-14T14:25:57.865Z,8.23
2018-02-14T14:28:26.008Z,10.60
2018-02-14T14:30:54.127Z,12.50
2018-02-14T14:33:22.243Z,9.50
2018-02-14T14:35:50.346Z,10.43
2018-02-14T14:38:18.486Z,8.80
2018-02-14T14:40:46.623Z,10.70
2018-02-14T14:43:14.736Z,12.40
2018-02-14T14:45:42.834Z,9.27
2018-02-14T14:48:10.948Z,11.33
2018-02-14T14:50:39.086Z,9.83
2018-02-14T14:53:07.198Z,13.17
2018-02-14T14:55:35.325Z,13.33
2018-02-14T14:58:03.454Z,13.20
2018-02-14T15:00:31.555Z,9.60
2018-02-14T15:02:59.653Z,9.20
2018-02-14T15:05:27.788Z,14.03
2018-02-14T15:07:55.865Z,9.40
2018-02-14T15:10:23.981Z,12.67
2018-02-14T15:12:52.872Z,8.37
2018-02-14T15:15:21.727Z,10.80
2018-02-14T15:17:49.824Z,10.13
2018-02-14T15:20:17.908Z,8.80
2018-02-14T15:22:46.768Z,9.67
2018-02-14T15:25:14.847Z,17.60
2018-02-14T15:27:42.963Z,6.80
2018-02-14T15:30:11.067Z,7.90
2018-02-14T15:32:39.165Z,7.00
2018-02-14T15:35:07.265Z,12.47
2018-02-14T15:37:35.344Z,8.57
2018-02-14T15:40:03.443Z,7.50
2018-02-14T15:42:31.545Z,8.10
2018-02-14T15:44:59.640Z,9.70
2018-02-14T15:47:27.732Z,8.73
2018-02-14T15:49:56.595Z,9.13
2018-02-14T15:52:24.674Z,8.90
2018-02-14T15:54:52.767Z,6.53
2018-02-14T15:57:21.620Z,12.73
2018-02-14T15:59:49.699Z,5.90
2018-02-14T16:02:17.791Z,8.37
2018-02-14T16:04:46.641Z,5.93
2018-02-14T16:07:14.736Z,7.53
2018-02-14T16:09:42.840Z,13.40
2018-02-14T16:12:11.696Z,8.73
2018-02-14T16:14:39.775Z,8.93
2018-02-14T16:17:07.876Z,8.40
2018-02-14T16:19:35.945Z,9.20
2018-02-14T16:22:04.837Z,9.00
2018-02-14T16:24:33.708Z,8.43
2018-02-14T16:27:02.580Z,10.20
2018-02-14T16:29:30.676Z,6.63
2018-02-14T16:31:59.515Z,10.97
2018-02-14T16:34:27.613Z,16.93
2018-02-14T16:36:55.719Z,9.60
2018-02-14T16:39:23.787Z,12.10
2018-02-14T16:41:52.649Z,7.27
2018-02-14T16:44:20.724Z,7.77
2018-02-14T16:46:48.802Z,10.00
2018-02-14T16:49:16.927Z,54.17
2018-02-14T16:51:45.029Z,11.80
2018-02-14T16:54:13.118Z,14.97
2018-02-14T16:56:41.197Z,9.53
2018-02-14T16:59:09.305Z,17.30
2018-02-14T17:01:37.393Z,10.00
2018-02-14T17:04:05.460Z,8.80
2018-02-14T17:06:33.567Z,8.77
2018-02-14T17:09:01.850Z,7.57
2018-02-14T17:11:29.961Z,13.00
2018-02-14T17:13:58.080Z,9.90
2018-02-14T17:16:26.178Z,8.30
2018-02-14T17:18:54.278Z,12.40
2018-02-14T17:21:23.229Z,11.30
2018-02-14T17:23:51.318Z,7.90
2018-02-14T17:26:22.962Z,22.60
2018-02-14T17:28:51.062Z,33.20
2018-02-14T17:31:19.940Z,10.10
2018-02-14T17:33:48.017Z,8.50
2018-02-14T17:36:17.096Z,15.37
2018-02-14T17:38:45.224Z,13.43
2018-02-14T17:41:13.340Z,8.47
2018-02-14T17:43:41.447Z,13.77
2018-02-14T17:46:09.548Z,9.30
2018-02-14T17:48:37.651Z,10.53
2018-02-14T17:51:05.744Z,11.63
2018-02-14T17:53:33.859Z,14.63
2018-02-14T17:56:01.936Z,29.53
2018-02-14T17:58:30.020Z,15.53
2018-02-14T18:00:58.127Z,8.37
2018-02-14T18:03:26.197Z,11.23
2018-02-14T18:05:54.334Z,12.20
2018-02-14T18:08:22.396Z,13.77
2018-02-14T18:10:50.492Z,11.33
2018-02-14T18:13:18.577Z,12.53
2018-02-14T18:15:46.716Z,25.80
2018-02-14T18:18:14.788Z,13.67
2018-02-14T18:20:42.887Z,10.83
2018-02-14T18:23:11.011Z,14.37
2018-02-14T18:25:39.190Z,12.40
2018-02-14T18:28:07.797Z,14.53
2018-02-14T18:30:36.122Z,16.50
2018-02-14T18:33:04.205Z,11.50
2018-02-14T18:35:32.278Z,11.80
2018-02-14T18:38:06.238Z,14.40
2018-02-14T18:40:34.437Z,11.63
2018-02-14T18:43:02.797Z,14.03
2018-02-14T18:45:30.928Z,13.97
2018-02-14T18:47:59.105Z,11.03
2018-02-14T18:50:27.388Z,14.53
2018-02-14T18:52:55.725Z,13.67
2018-02-14T18:55:23.916Z,13.53
2018-02-14T18:57:52.981Z,71.17
2018-02-14T19:00:21.100Z,17.90
2018-02-14T19:02:49.204Z,16.07
2018-02-14T19:05:17.306Z,14.50
2018-02-14T19:07:45.399Z,14.23
2018-02-14T19:10:15.546Z,13.90
2018-02-14T19:12:43.654Z,18.00
2018-02-14T19:15:11.733Z,16.53
2018-02-14T19:17:39.830Z,13.97
2018-02-14T19:20:07.938Z,15.47
2018-02-14T19:22:36.057Z,17.00
2018-02-14T19:25:04.166Z,21.30
2018-02-14T19:27:32.272Z,16.40
2018-02-14T19:30:00.608Z,29.67
2018-02-14T19:32:28.970Z,24.53
2018-02-14T19:34:58.001Z,20.80
2018-02-14T19:37:26.123Z,18.97
2018-02-14T19:39:54.246Z,30.37
2018-02-14T19:42:22.352Z,16.80
2018-02-14T19:44:50.447Z,18.50
2018-02-14T19:47:18.536Z,16.27
2018-02-14T19:49:46.637Z,20.37
2018-02-14T19:52:14.748Z,16.43
2018-02-14T19:54:42.885Z,21.33
2018-02-14T19:57:10.987Z,15.20
2018-02-14T19:59:39.074Z,26.33
2018-02-14T20:02:07.179Z,15.40
2018-02-14T20:04:35.260Z,20.23
2018-02-14T20:07:03.349Z,15.63
2018-02-14T20:09:31.633Z,14.80
2018-02-14T20:11:59.873Z,15.37
2018-02-14T20:14:28.747Z,15.77
2018-02-14T20:16:56.882Z,15.30
2018-02-14T20:19:24.984Z,19.93
2018-02-14T20:21:53.080Z,18.30
2018-02-14T20:24:22.021Z,16.70
2018-02-14T20:26:52.333Z,18.23
2018-02-14T20:29:23.740Z,19.07
2018-02-14T20:31:53.878Z,17.83
2018-02-14T20:34:22.068Z,20.30
2018-02-14T20:36:50.294Z,16.77
2018-02-14T20:39:21.886Z,19.00
2018-02-14T20:42:10.530Z,23.47
2018-02-14T20:47:40.008Z,21.97
2018-02-14T20:50:21.512Z,22.77
2018-02-14T20:52:59.931Z,21.20
2018-02-14T21:02:17.578Z,22.17
2018-02-14T21:04:46.780Z,25.33
2018-02-14T21:07:15.027Z,19.33
2018-02-14T21:09:45.025Z,21.30
2018-02-14T21:12:16.524Z,25.63
2018-02-14T21:15:00.357Z,23.63
2018-02-14T21:17:30.904Z,23.83
2018-02-14T21:20:01.157Z,22.37
2018-02-14T21:22:29.376Z,18.23
2018-02-14T21:24:57.543Z,21.93
2018-02-14T21:27:26.560Z,26.73
2018-02-14T21:29:57.459Z,23.37
2018-02-14T21:32:25.749Z,47.17
2018-02-14T21:34:54.687Z,30.43
2018-02-14T21:37:22.803Z,23.17
2018-02-14T21:39:50.943Z,23.23
2018-02-14T21:42:19.006Z,25.47
2018-02-14T21:44:47.110Z,25.50
2018-02-14T21:47:15.209Z,19.93
2018-02-14T21:49:43.328Z,23.37
2018-02-14T21:52:11.440Z,21.80
2018-02-14T21:54:39.574Z,20.87
2018-02-14T21:57:07.663Z,24.40
2018-02-14T21:59:35.763Z,26.23
2018-02-14T22:02:07.370Z,27.73
2018-02-14T22:04:35.537Z,21.73
2018-02-14T22:07:03.619Z,25.83
2018-02-14T22:09:32.497Z,32.37
2018-02-14T22:12:00.641Z,27.67
2018-02-14T22:14:28.745Z,28.63
2018-02-14T22:16:56.865Z,24.63
2018-02-14T22:19:24.962Z,25.23
2018-02-14T22:21:53.065Z,22.00
2018-02-14T22:24:21.197Z,25.43
2018-02-14T22:26:49.324Z,29.13
2018-02-14T22:29:17.455Z,20.80
2018-02-14T22:31:45.547Z,26.13
2018-02-14T22:34:13.662Z,25.17
2018-02-14T22:36:42.538Z,29.67
2018-02-14T22:39:11.428Z,27.70
2018-02-14T22:41:39.552Z,27.47
2018-02-14T22:44:07.672Z,28.97
2018-02-14T22:46:35.877Z,24.33
2018-02-14T22:49:03.974Z,29.50
2018-02-14T22:51:32.088Z,24.00
2018-02-14T22:54:00.195Z,21.60
2018-02-14T22:56:28.311Z,24.50
2018-02-14T22:58:56.391Z,24.23
2018-02-14T23:01:24.521Z,27.03
2018-02-14T23:03:52.637Z,25.50
2018-02-14T23:06:20.798Z,32.93
2018-02-14T23:08:48.859Z,24.67
2018-02-14T23:11:16.951Z,28.63
2018-02-14T23:13:45.075Z,28.50
2018-02-14T23:16:13.165Z,24.83
2018-02-14T23:18:41.280Z,28.53
2018-02-14T23:21:09.392Z,26.87
2018-02-14T23:23:37.505Z,25.30
2018-02-14T23:26:05.617Z,24.83
2018-02-14T23:28:33.704Z,26.73
2018-02-14T23:31:01.817Z,30.40
2018-02-14T23:33:29.908Z,26.10
2018-02-14T23:35:58.004Z,23.80
2018-02-14T23:38:26.876Z,25.30
2018-02-14T23:40:54.959Z,25.63
2018-02-14T23:43:23.061Z,25.47
2018-02-14T23:45:51.155Z,24.70
2018-02-14T23:48:19.264Z,25.60
2018-02-14T23:50:47.390Z,22.43
2018-02-14T23:53:15.479Z,28.17
2018-02-14T23:55:43.581Z,24.60
2018-02-14T23:58:13.188Z,24.37
